Time;durP1;ratioP1;P1;durP2;ratioP2;P2;SDS_P1;SDS_P2;PMS_P1;PMS_P2;Temp;Humidity;BMP_temperature;BMP_pressure;BME280_temperature;BME280_humidity;BME280_pressure;Samples;Min_cycle;Max_cycle;Signal;HPM_P1;HPM_P2
2021/09/06 00:00:14;;;;;;;;;;;11.50;90.40;;;;;;4992436;28;19917;-64
2021/09/06 00:02:40;;;;;;;;;;;11.50;90.50;;;;;;4992244;28;19917;-64
2021/09/06 00:05:09;;;;;;;;;;;11.40;90.40;;;;;;4991957;28;19930;-64
2021/09/06 00:07:35;;;;;;;;;;;11.40;90.50;;;;;;4992028;28;20371;-65
2021/09/06 00:10:13;;;;;;;;;;;11.40;90.60;;;;;;4975007;28;20286;-64
2021/09/06 00:12:38;;;;;;;;;;;11.30;90.50;;;;;;4991905;28;19968;-64
2021/09/06 00:15:04;;;;;;;;;;;11.30;90.60;;;;;;4991938;28;19917;-64
2021/09/06 00:17:30;;;;;;;;;;;11.30;90.70;;;;;;4974915;28;19926;-64
2021/09/06 00:19:55;;;;;;;;;;;11.20;90.70;;;;;;4991996;28;20461;-65
2021/09/06 00:22:21;;;;;;;;;;;11.20;90.70;;;;;;4992266;28;19924;-64
2021/09/06 00:24:46;;;;;;;;;;;11.20;90.70;;;;;;4974477;28;19914;-64
2021/09/06 00:27:12;;;;;;;;;;;11.10;90.80;;;;;;4974573;28;19924;-64
2021/09/06 00:29:39;;;;;;;;;;;11.10;90.80;;;;;;4992265;28;19922;-64
2021/09/06 00:32:05;;;;;;;;;;;11.10;90.90;;;;;;4991750;28;19917;-64
2021/09/06 00:34:30;;;;;;;;;;;11.10;90.90;;;;;;4992043;28;20397;-64
2021/09/06 00:36:56;;;;;;;;;;;11.00;90.70;;;;;;5007027;28;19922;-64
2021/09/06 00:39:23;;;;;;;;;;;11.00;90.90;;;;;;5009807;28;20290;-64
2021/09/06 00:41:48;;;;;;;;;;;11.00;90.90;;;;;;4978665;28;19918;-64
2021/09/06 00:44:14;;;;;;;;;;;11.00;90.90;;;;;;5011127;28;19918;-64
2021/09/06 00:46:45;;;;;;;;;;;11.00;90.80;;;;;;5010441;28;20005;-64
2021/09/06 00:49:11;;;;;;;;;;;11.00;91.00;;;;;;4963252;28;19948;-64
2021/09/06 00:51:36;;;;;;;;;;;10.90;91.00;;;;;;4995326;28;19957;-64
2021/09/06 00:54:02;;;;;;;;;;;10.90;91.00;;;;;;4995946;28;19925;-64
2021/09/06 00:56:27;;;;;;;;;;;10.90;91.10;;;;;;4995322;28;19928;-64
2021/09/06 00:58:54;;;;;;;;;;;10.90;91.00;;;;;;4995426;28;19922;-64
2021/09/06 01:01:20;;;;;;;;;;;10.90;91.10;;;;;;4995744;28;19945;-64
2021/09/06 01:03:45;;;;;;;;;;;10.90;91.10;;;;;;4978290;28;20271;-64
2021/09/06 01:06:37;;;;;;;;;;;10.80;91.00;;;;;;4978908;28;19961;-64
2021/09/06 01:09:21;;;;;;;;;;;10.80;91.20;;;;;;4995793;28;19956;-64
2021/09/06 01:11:58;;;;;;;;;;;10.80;91.20;;;;;;4995520;28;19922;-64
2021/09/06 01:14:28;;;;;;;;;;;10.80;91.20;;;;;;4977862;28;19918;-64
2021/09/06 01:16:54;;;;;;;;;;;10.70;91.00;;;;;;4994878;28;20404;-64
2021/09/06 01:19:21;;;;;;;;;;;10.70;91.30;;;;;;5010557;28;20012;-64
2021/09/06 01:21:51;;;;;;;;;;;10.70;91.20;;;;;;4977937;28;19922;-64
2021/09/06 01:24:39;;;;;;;;;;;10.60;91.10;;;;;;4976887;28;19921;-64
2021/09/06 01:27:12;;;;;;;;;;;10.60;91.30;;;;;;4977886;28;19918;-64
2021/09/06 01:29:39;;;;;;;;;;;10.60;91.30;;;;;;4977315;28;19917;-64
2021/09/06 01:32:06;;;;;;;;;;;10.60;91.30;;;;;;4977828;28;19922;-64
2021/09/06 01:34:33;;;;;;;;;;;10.60;91.40;;;;;;4994871;28;20303;-64
2021/09/06 01:37:00;;;;;;;;;;;10.60;91.40;;;;;;5009666;28;20314;-64
2021/09/06 01:39:26;;;;;;;;;;;10.50;91.40;;;;;;5010128;28;20007;-64
2021/09/06 01:41:52;;;;;;;;;;;10.50;91.30;;;;;;4994553;28;20002;-64
2021/09/06 01:44:18;;;;;;;;;;;10.50;91.30;;;;;;4994734;28;19967;-64
2021/09/06 01:46:44;;;;;;;;;;;10.50;91.20;;;;;;4994801;28;19918;-64
2021/09/06 01:49:10;;;;;;;;;;;10.40;91.40;;;;;;5009463;28;19941;-64
2021/09/06 01:51:36;;;;;;;;;;;10.40;91.40;;;;;;5009334;28;19918;-64
2021/09/06 01:54:02;;;;;;;;;;;10.40;91.50;;;;;;4994946;28;20378;-67
2021/09/06 01:56:28;;;;;;;;;;;10.30;91.30;;;;;;4992709;28;20017;-64
2021/09/06 01:58:56;;;;;;;;;;;10.40;91.40;;;;;;4977339;28;19929;-64
2021/09/06 02:01:21;;;;;;;;;;;10.30;91.50;;;;;;5009887;28;20380;-64
2021/09/06 02:03:47;;;;;;;;;;;10.30;91.50;;;;;;5009395;28;19918;-64
2021/09/06 02:06:15;;;;;;;;;;;10.20;91.20;;;;;;4976650;28;20390;-64
2021/09/06 02:08:50;;;;;;;;;;;10.30;91.50;;;;;;5009333;28;19953;-64
2021/09/06 02:11:17;;;;;;;;;;;10.20;91.50;;;;;;4993441;28;19925;-64
2021/09/06 02:13:43;;;;;;;;;;;10.20;91.50;;;;;;5009085;28;19914;-64
2021/09/06 02:16:09;;;;;;;;;;;10.20;91.30;;;;;;4976514;28;19924;-64
2021/09/06 02:18:38;;;;;;;;;;;10.20;91.50;;;;;;4976833;28;20404;-64
2021/09/06 02:21:04;;;;;;;;;;;10.20;91.60;;;;;;5008913;28;19918;-64
2021/09/06 02:23:30;;;;;;;;;;;10.20;91.60;;;;;;5009496;28;20036;-64
2021/09/06 02:25:57;;;;;;;;;;;10.10;91.40;;;;;;5008502;28;19929;-64
2021/09/06 02:28:23;;;;;;;;;;;10.10;91.60;;;;;;5009224;28;19918;-65
2021/09/06 02:30:50;;;;;;;;;;;10.10;92.00;;;;;;4993256;28;20004;-64
2021/09/06 02:33:24;;;;;;;;;;;10.10;91.90;;;;;;5008708;28;19945;-64
2021/09/06 02:36:16;;;;;;;;;;;10.10;91.70;;;;;;4976053;28;19938;-64
2021/09/06 02:38:42;;;;;;;;;;;10.20;91.90;;;;;;5008993;28;20351;-64
2021/09/06 02:41:13;;;;;;;;;;;10.10;91.90;;;;;;5009178;28;19917;-65
2021/09/06 02:43:39;;;;;;;;;;;10.20;92.00;;;;;;4976142;28;20025;-64
2021/09/06 02:46:05;;;;;;;;;;;10.20;91.90;;;;;;5008655;28;19925;-64
2021/09/06 02:48:32;;;;;;;;;;;10.20;92.10;;;;;;4975983;28;19918;-64
2021/09/06 02:50:58;;;;;;;;;;;10.20;92.20;;;;;;5008968;28;20382;-64
2021/09/06 02:53:24;;;;;;;;;;;10.30;92.30;;;;;;5008896;28;20009;-64
2021/09/06 02:55:51;;;;;;;;;;;10.30;92.10;;;;;;5008019;28;19918;-64
2021/09/06 02:58:17;;;;;;;;;;;10.30;92.30;;;;;;5008639;28;19922;-64
2021/09/06 03:00:44;;;;;;;;;;;10.40;92.30;;;;;;4976279;28;19925;-64
2021/09/06 03:03:09;;;;;;;;;;;10.40;92.30;;;;;;4959812;28;20334;-64
2021/09/06 03:05:35;;;;;;;;;;;10.40;92.10;;;;;;4993103;28;19918;-64
2021/09/06 03:08:01;;;;;;;;;;;10.40;92.20;;;;;;4993171;28;19940;-64
2021/09/06 03:10:27;;;;;;;;;;;10.50;92.30;;;;;;4993301;28;20418;-64
2021/09/06 03:12:54;;;;;;;;;;;10.50;92.30;;;;;;5008444;28;19922;-65
2021/09/06 03:15:19;;;;;;;;;;;10.50;92.10;;;;;;4992516;28;20363;-64
2021/09/06 03:17:47;;;;;;;;;;;10.50;92.30;;;;;;4975755;28;19926;-64
2021/09/06 03:20:26;;;;;;;;;;;10.50;92.30;;;;;;4993218;28;19960;-64
2021/09/06 03:22:52;;;;;;;;;;;10.50;92.40;;;;;;4993031;28;19949;-64
2021/09/06 03:25:20;;;;;;;;;;;10.50;92.40;;;;;;5007876;28;20008;-64
2021/09/06 03:27:46;;;;;;;;;;;10.60;92.40;;;;;;4992702;28;19953;-64
2021/09/06 03:30:12;;;;;;;;;;;10.60;92.50;;;;;;4993137;28;20341;-64
2021/09/06 03:32:39;;;;;;;;;;;10.60;92.50;;;;;;5008255;28;20075;-64
2021/09/06 03:35:05;;;;;;;;;;;10.60;92.40;;;;;;5007366;28;19917;-64
2021/09/06 03:37:34;;;;;;;;;;;10.60;92.60;;;;;;5008013;28;20308;-64
2021/09/06 03:39:59;;;;;;;;;;;10.70;92.60;;;;;;4992314;28;19971;-64
2021/09/06 03:42:27;;;;;;;;;;;10.70;92.70;;;;;;5008063;28;19922;-64
2021/09/06 03:44:53;;;;;;;;;;;10.70;92.60;;;;;;4975221;28;20178;-64
2021/09/06 03:47:18;;;;;;;;;;;10.70;92.60;;;;;;4992413;28;19972;-64
2021/09/06 03:49:44;;;;;;;;;;;10.70;92.50;;;;;;4992687;28;19918;-64
2021/09/06 03:52:10;;;;;;;;;;;10.70;92.50;;;;;;5007868;28;20374;-64
2021/09/06 03:54:36;;;;;;;;;;;10.70;92.40;;;;;;4974410;28;19924;-64
2021/09/06 03:57:04;;;;;;;;;;;10.70;92.60;;;;;;4975053;28;19957;-64
2021/09/06 03:59:32;;;;;;;;;;;10.70;92.60;;;;;;4974750;28;19918;-64
2021/09/06 04:01:58;;;;;;;;;;;10.60;92.60;;;;;;4975032;28;19972;-64
2021/09/06 04:04:24;;;;;;;;;;;10.70;92.70;;;;;;5007372;28;19980;-64
2021/09/06 04:06:49;;;;;;;;;;;10.60;92.60;;;;;;4991868;28;19921;-64
2021/09/06 04:09:18;;;;;;;;;;;10.70;92.90;;;;;;4975046;28;19918;-64
2021/09/06 04:11:44;;;;;;;;;;;10.70;92.90;;;;;;4974578;28;19992;-64
2021/09/06 04:14:15;;;;;;;;;;;10.80;93.00;;;;;;4973882;28;20349;-64
2021/09/06 04:16:42;;;;;;;;;;;10.70;92.90;;;;;;4974003;28;19918;-64
2021/09/06 04:19:07;;;;;;;;;;;10.80;92.90;;;;;;4974539;28;20008;-64
2021/09/06 04:21:33;;;;;;;;;;;10.70;92.90;;;;;;4948201;28;19917;-64
2021/09/06 04:24:01;;;;;;;;;;;10.80;93.00;;;;;;4958935;28;19918;-64
2021/09/06 04:26:26;;;;;;;;;;;10.80;93.00;;;;;;4974492;28;20428;-64
2021/09/06 04:28:52;;;;;;;;;;;10.80;93.10;;;;;;4974940;28;19918;-64
2021/09/06 04:31:18;;;;;;;;;;;10.90;93.10;;;;;;4991531;28;20283;-64
2021/09/06 04:33:43;;;;;;;;;;;10.90;93.10;;;;;;4974795;28;19917;-64
2021/09/06 04:36:09;;;;;;;;;;;10.90;93.10;;;;;;4974463;28;19922;-64
2021/09/06 04:38:40;;;;;;;;;;;11.00;93.10;;;;;;4979262;28;19929;-64
2021/09/06 04:41:06;;;;;;;;;;;11.00;93.10;;;;;;4984640;28;19924;-64
2021/09/06 04:43:34;;;;;;;;;;;11.00;93.10;;;;;;4979727;28;19918;-64
2021/09/06 04:46:03;;;;;;;;;;;11.00;93.10;;;;;;4974030;28;19924;-64
2021/09/06 04:48:29;;;;;;;;;;;11.10;93.20;;;;;;4990722;28;20004;-64
2021/09/06 04:50:55;;;;;;;;;;;11.10;93.10;;;;;;4973590;28;19921;-64
2021/09/06 04:53:24;;;;;;;;;;;11.10;93.20;;;;;;4972735;28;20038;-64
2021/09/06 04:55:51;;;;;;;;;;;11.10;93.20;;;;;;4973620;28;19917;-64
2021/09/06 04:58:17;;;;;;;;;;;11.10;93.20;;;;;;4968181;28;19921;-64
2021/09/06 05:00:44;;;;;;;;;;;11.10;93.30;;;;;;4974360;28;19943;-64
2021/09/06 05:03:10;;;;;;;;;;;11.20;93.30;;;;;;5000153;28;19922;-64
2021/09/06 05:09:04;;;;;;;;;;;11.20;93.30;;;;;;4992080;28;19968;-64
2021/09/06 05:11:33;;;;;;;;;;;11.20;93.30;;;;;;4975289;28;19921;-64
2021/09/06 05:14:07;;;;;;;;;;;11.30;93.30;;;;;;5006077;28;19918;-64
2021/09/06 05:16:33;;;;;;;;;;;11.30;93.30;;;;;;4989232;28;19917;-64
2021/09/06 05:18:59;;;;;;;;;;;11.30;93.40;;;;;;4993305;28;19922;-64
2021/09/06 05:21:24;;;;;;;;;;;11.30;93.40;;;;;;5011445;28;20004;-64
2021/09/06 05:23:50;;;;;;;;;;;11.40;93.40;;;;;;4976016;28;20346;-64
2021/09/06 05:26:17;;;;;;;;;;;11.40;93.50;;;;;;4976124;28;20013;-64
2021/09/06 05:28:44;;;;;;;;;;;11.50;93.60;;;;;;4977798;28;19945;-64
2021/09/06 05:31:10;;;;;;;;;;;11.60;93.70;;;;;;4995236;28;19922;-64
2021/09/06 05:33:40;;;;;;;;;;;11.60;93.90;;;;;;4969514;28;19925;-64
2021/09/06 05:36:07;;;;;;;;;;;11.70;93.70;;;;;;4975354;28;19973;-64
2021/09/06 05:38:32;;;;;;;;;;;11.80;93.70;;;;;;4979680;28;19921;-64
2021/09/06 05:41:31;;;;;;;;;;;11.90;93.70;;;;;;4991324;28;19928;-64
2021/09/06 05:43:58;;;;;;;;;;;12.00;93.80;;;;;;4985383;28;19972;-64
2021/09/06 05:46:27;;;;;;;;;;;12.10;93.80;;;;;;4987326;28;19924;-64
2021/09/06 05:48:52;;;;;;;;;;;12.20;93.70;;;;;;4984777;28;19918;-64
2021/09/06 05:51:19;;;;;;;;;;;12.30;93.80;;;;;;4984918;28;19918;-64
2021/09/06 05:54:04;;;;;;;;;;;12.40;93.80;;;;;;4986399;28;19922;-64
2021/09/06 05:56:30;;;;;;;;;;;12.50;93.80;;;;;;5009977;28;19918;-64
2021/09/06 05:58:58;;;;;;;;;;;12.60;93.70;;;;;;4988352;28;19928;-64
2021/09/06 06:01:26;;;;;;;;;;;12.70;93.70;;;;;;4986517;28;19921;-64
2021/09/06 06:03:52;;;;;;;;;;;12.80;93.70;;;;;;4986579;28;19925;-64
2021/09/06 06:06:23;;;;;;;;;;;12.90;93.80;;;;;;4982191;28;20032;-64
2021/09/06 06:08:52;;;;;;;;;;;13.10;93.70;;;;;;4985981;28;19965;-64
2021/09/06 06:11:18;;;;;;;;;;;13.10;93.60;;;;;;5004497;28;19965;-64
2021/09/06 06:13:44;;;;;;;;;;;13.20;93.60;;;;;;4985779;28;19960;-64
2021/09/06 06:16:11;;;;;;;;;;;13.30;93.70;;;;;;4989847;28;20008;-64
2021/09/06 06:18:38;;;;;;;;;;;13.30;93.70;;;;;;4995860;28;20436;-63
2021/09/06 06:21:06;;;;;;;;;;;13.40;93.70;;;;;;4996068;28;20489;-63
2021/09/06 06:23:49;;;;;;;;;;;13.50;93.60;;;;;;4995951;28;19953;-63
2021/09/06 06:26:26;;;;;;;;;;;13.70;93.50;;;;;;4995930;28;19924;-63
2021/09/06 06:28:52;;;;;;;;;;;13.80;93.80;;;;;;4995700;28;19957;-64
2021/09/06 06:31:18;;;;;;;;;;;14.00;93.90;;;;;;4992469;28;20405;-64
2021/09/06 06:33:44;;;;;;;;;;;14.30;94.40;;;;;;4996033;28;19925;-64
2021/09/06 06:36:11;;;;;;;;;;;14.70;94.40;;;;;;4983106;28;19956;-64
2021/09/06 06:38:40;;;;;;;;;;;15.10;94.00;;;;;;4982181;28;19945;-64
2021/09/06 06:41:06;;;;;;;;;;;15.40;93.70;;;;;;4974291;28;19917;-64
2021/09/06 06:43:55;;;;;;;;;;;15.60;93.50;;;;;;4974690;28;20441;-65
2021/09/06 06:46:20;;;;;;;;;;;15.80;93.40;;;;;;4991456;28;19965;-65
2021/09/06 06:48:49;;;;;;;;;;;16.00;93.20;;;;;;4982603;28;20376;-64
2021/09/06 06:51:18;;;;;;;;;;;16.10;92.90;;;;;;4983710;28;20568;-65
2021/09/06 06:53:46;;;;;;;;;;;16.30;92.40;;;;;;4985124;28;19922;-65
2021/09/06 06:56:13;;;;;;;;;;;16.50;92.40;;;;;;4985202;28;19925;-64
2021/09/06 06:58:39;;;;;;;;;;;16.80;92.40;;;;;;4983629;28;19961;-65
2021/09/06 07:01:09;;;;;;;;;;;17.00;92.30;;;;;;4984726;28;19920;-66
2021/09/06 07:03:35;;;;;;;;;;;17.30;92.50;;;;;;4986073;28;19917;-65
2021/09/06 07:06:01;;;;;;;;;;;17.80;93.10;;;;;;4999675;28;20298;-65
2021/09/06 07:08:28;;;;;;;;;;;18.60;93.00;;;;;;4985033;28;19917;-65
2021/09/06 07:10:54;;;;;;;;;;;19.30;92.40;;;;;;5002940;28;20334;-65
2021/09/06 07:13:20;;;;;;;;;;;19.50;90.70;;;;;;4983822;28;19924;-66
2021/09/06 07:15:45;;;;;;;;;;;19.50;89.80;;;;;;4985012;28;19918;-65
2021/09/06 07:18:14;;;;;;;;;;;19.50;88.50;;;;;;4984903;28;19953;-65
2021/09/06 07:20:40;;;;;;;;;;;19.40;87.70;;;;;;4983812;28;19922;-65
2021/09/06 07:23:06;;;;;;;;;;;19.80;90.40;;;;;;4985324;28;19924;-66
2021/09/06 07:25:35;;;;;;;;;;;21.50;92.50;;;;;;4977590;28;19976;-65
2021/09/06 07:28:01;;;;;;;;;;;23.40;91.80;;;;;;4973016;28;19933;-65
2021/09/06 07:30:27;;;;;;;;;;;25.20;88.90;;;;;;4974212;28;19918;-65
2021/09/06 07:32:53;;;;;;;;;;;26.30;82.20;;;;;;4974453;28;20302;-66
2021/09/06 07:35:19;;;;;;;;;;;26.10;76.20;;;;;;4960233;28;19918;-65
2021/09/06 07:37:44;;;;;;;;;;;26.00;74.80;;;;;;4972695;28;19976;-65
2021/09/06 07:40:10;;;;;;;;;;;25.70;71.50;;;;;;4974060;28;19918;-65
2021/09/06 07:42:39;;;;;;;;;;;25.10;69.10;;;;;;4969042;28;19918;-65
2021/09/06 07:45:05;;;;;;;;;;;24.30;68.80;;;;;;4981804;28;19918;-65
2021/09/06 07:47:31;;;;;;;;;;;24.40;72.10;;;;;;4979609;28;20366;-65
2021/09/06 07:49:58;;;;;;;;;;;25.20;72.80;;;;;;4974489;28;19918;-68
2021/09/06 07:52:24;;;;;;;;;;;26.10;71.20;;;;;;4981607;28;19921;-65
2021/09/06 07:54:50;;;;;;;;;;;27.40;71.50;;;;;;4973375;28;19928;-66
2021/09/06 07:57:18;;;;;;;;;;;29.00;69.20;;;;;;4972974;28;20289;-65
2021/09/06 07:59:44;;;;;;;;;;;30.10;64.70;;;;;;4981889;28;19922;-65
2021/09/06 08:02:09;;;;;;;;;;;30.40;60.60;;;;;;4981343;28;19922;-65
2021/09/06 08:04:38;;;;;;;;;;;30.70;59.50;;;;;;4972825;28;19980;-65
2021/09/06 08:07:05;;;;;;;;;;;31.20;57.50;;;;;;4973448;28;20374;-65
2021/09/06 08:09:32;;;;;;;;;;;31.50;56.50;;;;;;4981266;28;19922;-65
2021/09/06 08:11:57;;;;;;;;;;;32.40;56.00;;;;;;4972682;28;19984;-65
2021/09/06 08:14:24;;;;;;;;;;;32.00;51.40;;;;;;4969420;28;19917;-64
2021/09/06 08:16:50;;;;;;;;;;;30.40;48.40;;;;;;4972281;28;19972;-64
2021/09/06 08:19:16;;;;;;;;;;;28.70;49.10;;;;;;4970478;28;19918;-65
2021/09/06 08:21:42;;;;;;;;;;;28.10;52.40;;;;;;4965299;28;19924;-65
2021/09/06 08:24:08;;;;;;;;;;;29.00;55.10;;;;;;4972733;28;19992;-65
2021/09/06 08:26:34;;;;;;;;;;;30.90;55.10;;;;;;4956687;28;19965;-65
2021/09/06 08:29:00;;;;;;;;;;;32.70;52.20;;;;;;4973361;28;19921;-65
2021/09/06 08:31:29;;;;;;;;;;;34.00;49.30;;;;;;4980686;28;19933;-65
2021/09/06 08:33:54;;;;;;;;;;;35.20;47.80;;;;;;4990485;28;19972;-65
2021/09/06 08:36:20;;;;;;;;;;;36.10;44.70;;;;;;4972331;28;19918;-65
2021/09/06 08:38:45;;;;;;;;;;;36.50;42.80;;;;;;4980680;28;19928;-65
2021/09/06 08:41:11;;;;;;;;;;;36.90;41.60;;;;;;4973225;28;19932;-65
2021/09/06 08:43:37;;;;;;;;;;;37.30;40.00;;;;;;4969156;28;20013;-68
2021/09/06 08:46:12;;;;;;;;;;;37.30;39.00;;;;;;4971865;28;19954;-68
2021/09/06 08:48:38;;;;;;;;;;;37.60;38.60;;;;;;4970816;28;20456;-68
2021/09/06 08:51:03;;;;;;;;;;;37.80;37.80;;;;;;4971173;28;19934;-68
2021/09/06 08:53:31;;;;;;;;;;;38.10;36.80;;;;;;4972461;28;19922;-68
2021/09/06 08:55:57;;;;;;;;;;;38.50;36.30;;;;;;4970040;28;19969;-68
2021/09/06 08:58:22;;;;;;;;;;;39.00;36.00;;;;;;4971578;28;19922;-68
2021/09/06 09:00:52;;;;;;;;;;;39.40;34.80;;;;;;4974556;28;20378;-68
2021/09/06 09:03:32;;;;;;;;;;;39.90;34.70;;;;;;4975367;28;20185;-68
2021/09/06 09:06:11;;;;;;;;;;;40.30;33.80;;;;;;4974938;28;19918;-68
2021/09/06 09:08:58;;;;;;;;;;;40.90;33.50;;;;;;4975333;28;19918;-68
2021/09/06 09:11:34;;;;;;;;;;;41.50;32.90;;;;;;4976443;28;20009;-69
2021/09/06 09:14:21;;;;;;;;;;;41.90;31.90;;;;;;4976746;28;19968;-68
2021/09/06 09:17:12;;;;;;;;;;;42.30;31.30;;;;;;4977479;28;19921;-69
2021/09/06 09:20:10;;;;;;;;;;;42.40;30.10;;;;;;4982322;28;19922;-69
2021/09/06 09:22:51;;;;;;;;;;;42.10;29.50;;;;;;4977678;28;20458;-69
2021/09/06 09:25:33;;;;;;;;;;;40.80;29.00;;;;;;4977064;28;19957;-69
2021/09/06 09:28:29;;;;;;;;;;;39.00;29.20;;;;;;4990398;28;19977;-68
2021/09/06 09:31:23;;;;;;;;;;;38.50;30.40;;;;;;4977780;28;19918;-68
2021/09/06 09:33:55;;;;;;;;;;;38.60;30.40;;;;;;4977171;28;19918;-69
2021/09/06 09:36:32;;;;;;;;;;;39.20;30.30;;;;;;4977012;28;20004;-68
2021/09/06 09:39:07;;;;;;;;;;;39.90;30.60;;;;;;4994184;28;19929;-68
2021/09/06 09:41:33;;;;;;;;;;;40.60;29.50;;;;;;4994961;28;19972;-68
2021/09/06 09:44:06;;;;;;;;;;;40.70;29.40;;;;;;4994472;28;20363;-68
2021/09/06 09:46:36;;;;;;;;;;;41.10;29.30;;;;;;4977255;28;20012;-69
2021/09/06 09:49:12;;;;;;;;;;;41.00;28.70;;;;;;4994334;28;19925;-69
2021/09/06 09:51:38;;;;;;;;;;;41.40;29.10;;;;;;4977339;28;19925;-68
2021/09/06 09:54:05;;;;;;;;;;;41.90;28.40;;;;;;4994868;28;19918;-68
2021/09/06 09:56:32;;;;;;;;;;;42.20;28.60;;;;;;4993729;28;19928;-68
2021/09/06 09:58:59;;;;;;;;;;;42.60;28.50;;;;;;4977239;28;19921;-68
2021/09/06 10:01:27;;;;;;;;;;;42.00;27.90;;;;;;4994558;28;19941;-68
2021/09/06 10:03:58;;;;;;;;;;;41.80;28.20;;;;;;4976928;28;19918;-68
2021/09/06 10:06:26;;;;;;;;;;;41.60;28.20;;;;;;4993469;28;20296;-68
2021/09/06 10:08:52;;;;;;;;;;;40.80;27.50;;;;;;4993997;28;19940;-68
2021/09/06 10:11:18;;;;;;;;;;;39.20;27.60;;;;;;4993753;28;19918;-68
2021/09/06 10:13:44;;;;;;;;;;;37.60;28.40;;;;;;4977010;28;19922;-68
2021/09/06 10:16:11;;;;;;;;;;;36.40;29.10;;;;;;4993456;28;19918;-68
2021/09/06 10:18:38;;;;;;;;;;;35.20;29.40;;;;;;4977210;28;19917;-67
2021/09/06 10:21:15;;;;;;;;;;;34.20;30.00;;;;;;4993826;28;20012;-68
2021/09/06 10:23:45;;;;;;;;;;;33.60;30.60;;;;;;4989788;28;19940;-67
2021/09/06 10:26:12;;;;;;;;;;;32.60;30.90;;;;;;5004589;22;19932;-64
2021/09/06 10:28:38;;;;;;;;;;;31.50;32.00;;;;;;4995204;28;19918;-63
2021/09/06 10:31:17;;;;;;;;;;;30.80;33.00;;;;;;5002023;28;20080;-66
2021/09/06 10:33:43;;;;;;;;;;;30.20;33.50;;;;;;5001630;28;20495;-64
2021/09/06 10:36:17;;;;;;;;;;;29.60;34.80;;;;;;4985684;28;19922;-64
2021/09/06 10:38:44;;;;;;;;;;;29.60;36.00;;;;;;4999696;28;19921;-64
2021/09/06 10:41:16;;;;;;;;;;;29.80;36.80;;;;;;5001897;28;19922;-64
2021/09/06 10:43:43;;;;;;;;;;;30.40;37.50;;;;;;5002473;28;19917;-63
2021/09/06 10:46:10;;;;;;;;;;;30.90;37.20;;;;;;5003580;28;19914;-64
2021/09/06 10:48:35;;;;;;;;;;;30.90;36.90;;;;;;4999008;28;19933;-65
2021/09/06 10:51:02;;;;;;;;;;;30.70;36.30;;;;;;5003044;28;19940;-64
2021/09/06 10:53:28;;;;;;;;;;;30.30;35.80;;;;;;5002790;28;19980;-64
2021/09/06 10:55:58;;;;;;;;;;;29.70;35.60;;;;;;4997984;28;19918;-64
2021/09/06 10:58:25;;;;;;;;;;;29.00;36.00;;;;;;5001538;28;19928;-63
2021/09/06 11:00:56;;;;;;;;;;;28.40;37.10;;;;;;5002373;28;20373;-63
2021/09/06 11:03:24;;;;;;;;;;;28.20;38.40;;;;;;5001929;28;19918;-63
2021/09/06 11:05:51;;;;;;;;;;;28.20;38.70;;;;;;5000393;28;19926;-64
2021/09/06 11:08:22;;;;;;;;;;;28.20;39.30;;;;;;5001930;28;19920;-65
2021/09/06 11:10:48;;;;;;;;;;;28.20;39.50;;;;;;5002402;28;20464;-63
2021/09/06 11:13:15;;;;;;;;;;;28.00;39.40;;;;;;5000542;28;19918;-64
2021/09/06 11:15:40;;;;;;;;;;;27.50;38.60;;;;;;5001101;28;20397;-63
2021/09/06 11:18:08;;;;;;;;;;;26.80;39.40;;;;;;5001912;28;19929;-63
2021/09/06 11:20:37;;;;;;;;;;;26.40;40.30;;;;;;5000075;28;19918;-63
2021/09/06 11:23:04;;;;;;;;;;;26.10;40.90;;;;;;4982828;28;19972;-61
2021/09/06 11:25:31;;;;;;;;;;;26.20;41.80;;;;;;4984399;28;19936;-63
2021/09/06 11:28:23;;;;;;;;;;;26.60;42.70;;;;;;4997355;28;19972;-64
2021/09/06 11:30:49;;;;;;;;;;;26.90;42.70;;;;;;4997818;28;19918;-63
2021/09/06 11:33:15;;;;;;;;;;;27.30;42.60;;;;;;5001123;28;20442;-64
2021/09/06 11:35:43;;;;;;;;;;;27.80;43.30;;;;;;5000486;28;20400;-64
2021/09/06 11:38:09;;;;;;;;;;;28.50;43.10;;;;;;5002014;28;20384;-63
2021/09/06 11:40:35;;;;;;;;;;;29.20;41.90;;;;;;4999829;28;19917;-63
2021/09/06 11:43:03;;;;;;;;;;;29.50;41.20;;;;;;5001183;28;19929;-63
2021/09/06 11:45:28;;;;;;;;;;;29.40;40.00;;;;;;4997435;28;19917;-64
2021/09/06 11:48:04;;;;;;;;;;;29.00;40.00;;;;;;5001209;28;20271;-63
2021/09/06 11:50:37;;;;;;;;;;;28.50;39.50;;;;;;4996337;28;19997;-63
2021/09/06 11:53:12;;;;;;;;;;;28.00;39.80;;;;;;4982459;28;19921;-63
2021/09/06 11:55:52;;;;;;;;;;;27.60;39.70;;;;;;4999536;28;19918;-63
2021/09/06 11:58:17;;;;;;;;;;;27.20;39.90;;;;;;4998445;28;19926;-63
2021/09/06 12:00:43;;;;;;;;;;;27.00;40.90;;;;;;4999346;28;20012;-63
2021/09/06 12:03:09;;;;;;;;;;;27.10;41.20;;;;;;5001692;28;19917;-64
2021/09/06 12:05:37;;;;;;;;;;;27.20;41.00;;;;;;5000338;28;19949;-63
2021/09/06 12:08:02;;;;;;;;;;;27.10;40.70;;;;;;4981623;28;19922;-62
2021/09/06 12:10:30;;;;;;;;;;;26.80;40.90;;;;;;4997195;28;19918;-64
2021/09/06 12:13:01;;;;;;;;;;;26.60;41.00;;;;;;4999002;28;19945;-64
2021/09/06 12:15:27;;;;;;;;;;;26.30;41.20;;;;;;4983748;28;20004;-63
2021/09/06 12:18:04;;;;;;;;;;;25.90;41.40;;;;;;5000118;28;19972;-63
2021/09/06 12:20:29;;;;;;;;;;;25.70;41.70;;;;;;4996900;28;20362;-62
2021/09/06 12:22:55;;;;;;;;;;;25.40;42.20;;;;;;4984935;28;19922;-63
2021/09/06 12:25:23;;;;;;;;;;;25.20;42.20;;;;;;4998413;28;19918;-62
2021/09/06 12:27:48;;;;;;;;;;;25.10;42.80;;;;;;4999431;28;19957;-63
2021/09/06 12:30:14;;;;;;;;;;;25.20;43.40;;;;;;5000835;28;19960;-64
2021/09/06 12:32:40;;;;;;;;;;;25.50;43.30;;;;;;5003531;28;19918;-64
2021/09/06 12:35:06;;;;;;;;;;;25.70;43.20;;;;;;4980323;28;19980;-66
2021/09/06 12:37:31;;;;;;;;;;;26.20;44.60;;;;;;4997590;28;19922;-67
2021/09/06 12:39:58;;;;;;;;;;;26.90;43.10;;;;;;4995089;28;19984;-64
2021/09/06 12:42:23;;;;;;;;;;;27.00;42.10;;;;;;4978074;28;19929;-63
2021/09/06 12:44:49;;;;;;;;;;;26.80;41.40;;;;;;4991779;28;19917;-65
2021/09/06 12:47:14;;;;;;;;;;;26.40;41.50;;;;;;5004031;28;19925;-64
2021/09/06 12:49:40;;;;;;;;;;;26.20;41.80;;;;;;5007447;28;20392;-63
2021/09/06 12:52:06;;;;;;;;;;;26.00;41.80;;;;;;5014594;28;19971;-64
2021/09/06 12:54:31;;;;;;;;;;;25.80;41.80;;;;;;4998291;28;20011;-65
2021/09/06 12:56:57;;;;;;;;;;;25.60;41.70;;;;;;4995077;28;19929;-63
2021/09/06 12:59:23;;;;;;;;;;;25.50;42.20;;;;;;4995044;28;19922;-63
2021/09/06 13:01:51;;;;;;;;;;;25.30;42.60;;;;;;4995326;28;19925;-63
2021/09/06 13:04:17;;;;;;;;;;;25.30;43.50;;;;;;4994273;28;19918;-63
2021/09/06 13:06:42;;;;;;;;;;;25.30;43.40;;;;;;4977364;28;19957;-62
2021/09/06 13:09:08;;;;;;;;;;;25.30;43.50;;;;;;4995102;28;19953;-64
2021/09/06 13:11:34;;;;;;;;;;;25.30;43.60;;;;;;4994646;28;19925;-63
2021/09/06 13:14:00;;;;;;;;;;;25.30;43.30;;;;;;4994137;28;19917;-63
2021/09/06 13:16:25;;;;;;;;;;;25.40;43.60;;;;;;4994408;28;19918;-63
2021/09/06 13:18:51;;;;;;;;;;;25.40;43.90;;;;;;4994325;28;19922;-62
2021/09/06 13:21:17;;;;;;;;;;;25.40;43.70;;;;;;4999198;28;19925;-62
2021/09/06 13:23:42;;;;;;;;;;;25.40;43.80;;;;;;4993174;28;19980;-63
2021/09/06 13:26:13;;;;;;;;;;;25.30;43.50;;;;;;4994040;28;19926;-63
2021/09/06 13:28:40;;;;;;;;;;;25.10;43.70;;;;;;4994216;28;19969;-63
2021/09/06 13:31:05;;;;;;;;;;;24.90;43.90;;;;;;4968777;28;20263;-63
2021/09/06 13:33:33;;;;;;;;;;;24.70;44.40;;;;;;4993550;28;19968;-64
2021/09/06 13:35:58;;;;;;;;;;;24.50;45.00;;;;;;4993311;28;19925;-64
2021/09/06 13:38:26;;;;;;;;;;;24.30;45.20;;;;;;4994886;28;19922;-62
2021/09/06 13:40:52;;;;;;;;;;;24.10;45.20;;;;;;4994999;28;19968;-63
2021/09/06 13:43:17;;;;;;;;;;;23.90;45.40;;;;;;4994511;28;20382;-63
2021/09/06 13:45:43;;;;;;;;;;;23.60;46.10;;;;;;4975934;28;20394;-62
2021/09/06 13:48:08;;;;;;;;;;;23.40;46.50;;;;;;4994733;28;19917;-64
2021/09/06 13:50:34;;;;;;;;;;;23.20;47.00;;;;;;4994366;28;19918;-62
2021/09/06 13:53:00;;;;;;;;;;;23.10;47.60;;;;;;4994388;28;20341;-63
2021/09/06 13:55:25;;;;;;;;;;;22.90;47.80;;;;;;4993877;28;19918;-63
2021/09/06 13:57:51;;;;;;;;;;;22.70;48.20;;;;;;4993726;28;19922;-63
2021/09/06 14:00:16;;;;;;;;;;;22.70;48.80;;;;;;4994203;28;19949;-62
2021/09/06 14:02:45;;;;;;;;;;;22.70;49.10;;;;;;4993906;28;19917;-65
2021/09/06 14:05:10;;;;;;;;;;;22.60;49.10;;;;;;4993433;28;19949;-64
2021/09/06 14:07:36;;;;;;;;;;;22.60;49.40;;;;;;4994038;28;19976;-64
2021/09/06 14:10:02;;;;;;;;;;;22.60;49.80;;;;;;4993486;28;19918;-64
2021/09/06 14:12:27;;;;;;;;;;;22.60;49.90;;;;;;4994410;28;19925;-63
2021/09/06 14:14:53;;;;;;;;;;;22.60;50.10;;;;;;4994154;28;19922;-64
2021/09/06 14:17:18;;;;;;;;;;;22.50;50.50;;;;;;4993847;28;19921;-64
2021/09/06 14:19:44;;;;;;;;;;;22.50;50.90;;;;;;4994403;28;20298;-65
2021/09/06 14:22:10;;;;;;;;;;;22.60;51.20;;;;;;4994076;28;19926;-64
2021/09/06 14:24:36;;;;;;;;;;;22.60;51.30;;;;;;4993316;28;19922;-62